sensor_id;sensor_type;location;lat;lon;timestamp;P1;durP1;ratioP1;P2;durP2;ratioP2
31906;SDS011;18455;50.858;13.662;2022-08-19T00:03:20;49.17;;;39.50;;
31906;SDS011;18455;50.858;13.662;2022-08-19T00:08:20;51.33;;;38.80;;
31906;SDS011;18455;50.858;13.662;2022-08-19T00:13:21;47.92;;;36.97;;
31906;SDS011;18455;50.858;13.662;2022-08-19T00:18:21;45.67;;;36.15;;
31906;SDS011;18455;50.858;13.662;2022-08-19T00:23:21;46.15;;;37.20;;
31906;SDS011;18455;50.858;13.662;2022-08-19T00:28:22;45.40;;;36.13;;
31906;SDS011;18455;50.858;13.662;2022-08-19T00:33:22;44.22;;;34.63;;
31906;SDS011;18455;50.858;13.662;2022-08-19T00:38:22;43.63;;;34.65;;
31906;SDS011;18455;50.858;13.662;2022-08-19T00:43:23;40.72;;;34.28;;
31906;SDS011;18455;50.858;13.662;2022-08-19T00:48:26;42.92;;;35.08;;
31906;SDS011;18455;50.858;13.662;2022-08-19T00:53:27;42.00;;;35.33;;
31906;SDS011;18455;50.858;13.662;2022-08-19T00:58:30;43.35;;;35.53;;
31906;SDS011;18455;50.858;13.662;2022-08-19T01:03:32;44.83;;;35.53;;
31906;SDS011;18455;50.858;13.662;2022-08-19T01:08:33;42.80;;;32.45;;
31906;SDS011;18455;50.858;13.662;2022-08-19T01:13:34;42.42;;;33.60;;
31906;SDS011;18455;50.858;13.662;2022-08-19T01:18:36;41.08;;;34.65;;
31906;SDS011;18455;50.858;13.662;2022-08-19T01:23:39;45.58;;;37.65;;
31906;SDS011;18455;50.858;13.662;2022-08-19T01:28:43;45.40;;;36.40;;
31906;SDS011;18455;50.858;13.662;2022-08-19T01:33:44;45.10;;;37.20;;
31906;SDS011;18455;50.858;13.662;2022-08-19T01:38:46;48.38;;;37.97;;
31906;SDS011;18455;50.858;13.662;2022-08-19T01:43:47;53.83;;;41.83;;
31906;SDS011;18455;50.858;13.662;2022-08-19T01:48:47;51.67;;;38.40;;
31906;SDS011;18455;50.858;13.662;2022-08-19T01:53:48;53.13;;;41.33;;
31906;SDS011;18455;50.858;13.662;2022-08-19T01:58:51;43.17;;;35.95;;
31906;SDS011;18455;50.858;13.662;2022-08-19T02:03:53;47.28;;;35.70;;
31906;SDS011;18455;50.858;13.662;2022-08-19T02:08:55;41.33;;;34.80;;
31906;SDS011;18455;50.858;13.662;2022-08-19T02:13:55;47.05;;;38.20;;
31906;SDS011;18455;50.858;13.662;2022-08-19T02:18:56;44.80;;;37.22;;
31906;SDS011;18455;50.858;13.662;2022-08-19T02:23:56;44.00;;;34.90;;
31906;SDS011;18455;50.858;13.662;2022-08-19T02:28:57;44.35;;;35.72;;
31906;SDS011;18455;50.858;13.662;2022-08-19T02:33:57;43.15;;;37.65;;
31906;SDS011;18455;50.858;13.662;2022-08-19T02:38:58;43.83;;;35.50;;
31906;SDS011;18455;50.858;13.662;2022-08-19T02:43:59;41.90;;;35.00;;
31906;SDS011;18455;50.858;13.662;2022-08-19T02:49:03;40.53;;;35.45;;
31906;SDS011;18455;50.858;13.662;2022-08-19T02:54:05;41.05;;;32.75;;
31906;SDS011;18455;50.858;13.662;2022-08-19T02:59:06;40.42;;;33.67;;
31906;SDS011;18455;50.858;13.662;2022-08-19T03:04:08;48.42;;;36.30;;
31906;SDS011;18455;50.858;13.662;2022-08-19T03:09:11;41.15;;;35.08;;
31906;SDS011;18455;50.858;13.662;2022-08-19T03:14:12;42.10;;;34.75;;
31906;SDS011;18455;50.858;13.662;2022-08-19T03:19:13;41.22;;;34.42;;
31906;SDS011;18455;50.858;13.662;2022-08-19T03:24:15;41.25;;;35.33;;
31906;SDS011;18455;50.858;13.662;2022-08-19T03:29:15;39.80;;;33.38;;
31906;SDS011;18455;50.858;13.662;2022-08-19T03:34:19;51.45;;;39.58;;
31906;SDS011;18455;50.858;13.662;2022-08-19T03:39:21;49.17;;;40.28;;
31906;SDS011;18455;50.858;13.662;2022-08-19T03:44:22;55.97;;;44.72;;
31906;SDS011;18455;50.858;13.662;2022-08-19T03:49:23;50.13;;;41.55;;
31906;SDS011;18455;50.858;13.662;2022-08-19T03:54:26;53.90;;;42.58;;
31906;SDS011;18455;50.858;13.662;2022-08-19T03:59:28;53.05;;;42.17;;
31906;SDS011;18455;50.858;13.662;2022-08-19T04:04:31;55.28;;;45.22;;
31906;SDS011;18455;50.858;13.662;2022-08-19T04:09:32;60.70;;;45.30;;
31906;SDS011;18455;50.858;13.662;2022-08-19T04:14:34;62.10;;;42.95;;
31906;SDS011;18455;50.858;13.662;2022-08-19T04:19:35;54.72;;;43.13;;
31906;SDS011;18455;50.858;13.662;2022-08-19T04:24:35;54.63;;;41.72;;
31906;SDS011;18455;50.858;13.662;2022-08-19T04:29:35;55.47;;;43.92;;
31906;SDS011;18455;50.858;13.662;2022-08-19T04:34:39;57.45;;;43.67;;
31906;SDS011;18455;50.858;13.662;2022-08-19T04:39:39;58.13;;;44.30;;
31906;SDS011;18455;50.858;13.662;2022-08-19T04:44:58;54.30;;;41.80;;
31906;SDS011;18455;50.858;13.662;2022-08-19T04:49:59;50.10;;;40.35;;
31906;SDS011;18455;50.858;13.662;2022-08-19T04:54:59;50.85;;;39.88;;
31906;SDS011;18455;50.858;13.662;2022-08-19T05:00:00;52.85;;;40.78;;
31906;SDS011;18455;50.858;13.662;2022-08-19T05:05:00;49.30;;;38.20;;
31906;SDS011;18455;50.858;13.662;2022-08-19T05:10:01;44.10;;;36.63;;
31906;SDS011;18455;50.858;13.662;2022-08-19T05:15:02;44.33;;;37.25;;
31906;SDS011;18455;50.858;13.662;2022-08-19T05:20:05;49.75;;;37.53;;
31906;SDS011;18455;50.858;13.662;2022-08-19T05:25:24;50.45;;;38.75;;
31906;SDS011;18455;50.858;13.662;2022-08-19T05:30:25;52.53;;;39.78;;
31906;SDS011;18455;50.858;13.662;2022-08-19T05:35:26;55.15;;;39.97;;
31906;SDS011;18455;50.858;13.662;2022-08-19T05:40:26;44.25;;;36.40;;
31906;SDS011;18455;50.858;13.662;2022-08-19T05:45:26;45.15;;;37.33;;
31906;SDS011;18455;50.858;13.662;2022-08-19T05:50:27;51.50;;;37.67;;
31906;SDS011;18455;50.858;13.662;2022-08-19T05:55:28;46.05;;;36.97;;
31906;SDS011;18455;50.858;13.662;2022-08-19T06:00:28;51.45;;;40.00;;
31906;SDS011;18455;50.858;13.662;2022-08-19T06:05:30;45.13;;;36.53;;
31906;SDS011;18455;50.858;13.662;2022-08-19T06:10:30;42.60;;;33.78;;
31906;SDS011;18455;50.858;13.662;2022-08-19T06:15:31;42.05;;;34.03;;
31906;SDS011;18455;50.858;13.662;2022-08-19T06:20:31;42.42;;;32.03;;
31906;SDS011;18455;50.858;13.662;2022-08-19T06:25:32;38.47;;;31.25;;
31906;SDS011;18455;50.858;13.662;2022-08-19T06:30:32;35.08;;;28.45;;
31906;SDS011;18455;50.858;13.662;2022-08-19T06:35:33;33.85;;;29.33;;
31906;SDS011;18455;50.858;13.662;2022-08-19T06:40:39;34.20;;;28.23;;
31906;SDS011;18455;50.858;13.662;2022-08-19T06:45:39;33.38;;;26.80;;
31906;SDS011;18455;50.858;13.662;2022-08-19T06:50:39;27.85;;;22.63;;
31906;SDS011;18455;50.858;13.662;2022-08-19T06:55:40;32.72;;;23.48;;
31906;SDS011;18455;50.858;13.662;2022-08-19T07:00:40;24.63;;;21.48;;
31906;SDS011;18455;50.858;13.662;2022-08-19T07:05:41;23.05;;;20.60;;
31906;SDS011;18455;50.858;13.662;2022-08-19T07:10:42;24.25;;;20.10;;
31906;SDS011;18455;50.858;13.662;2022-08-19T07:15:44;28.88;;;20.77;;
31906;SDS011;18455;50.858;13.662;2022-08-19T07:20:46;30.20;;;21.73;;
31906;SDS011;18455;50.858;13.662;2022-08-19T07:25:47;27.73;;;23.40;;
31906;SDS011;18455;50.858;13.662;2022-08-19T07:30:47;32.55;;;25.77;;
31906;SDS011;18455;50.858;13.662;2022-08-19T07:35:49;30.70;;;24.33;;
31906;SDS011;18455;50.858;13.662;2022-08-19T07:40:50;26.63;;;22.40;;
31906;SDS011;18455;50.858;13.662;2022-08-19T07:45:52;26.77;;;22.27;;
31906;SDS011;18455;50.858;13.662;2022-08-19T07:50:56;28.60;;;23.48;;
31906;SDS011;18455;50.858;13.662;2022-08-19T07:56:02;27.40;;;22.40;;
31906;SDS011;18455;50.858;13.662;2022-08-19T08:01:04;27.77;;;21.60;;
31906;SDS011;18455;50.858;13.662;2022-08-19T08:06:06;30.38;;;23.60;;
31906;SDS011;18455;50.858;13.662;2022-08-19T08:11:25;33.88;;;24.38;;
31906;SDS011;18455;50.858;13.662;2022-08-19T08:16:26;34.90;;;25.95;;
31906;SDS011;18455;50.858;13.662;2022-08-19T08:21:29;31.50;;;23.75;;
31906;SDS011;18455;50.858;13.662;2022-08-19T08:26:30;30.75;;;23.63;;
31906;SDS011;18455;50.858;13.662;2022-08-19T08:31:30;30.27;;;23.02;;
31906;SDS011;18455;50.858;13.662;2022-08-19T08:36:30;28.65;;;22.88;;
31906;SDS011;18455;50.858;13.662;2022-08-19T08:41:34;27.77;;;22.48;;
31906;SDS011;18455;50.858;13.662;2022-08-19T08:46:42;28.55;;;21.75;;
31906;SDS011;18455;50.858;13.662;2022-08-19T08:57:19;16.48;;;13.93;;
31906;SDS011;18455;50.858;13.662;2022-08-19T09:02:24;19.35;;;14.82;;
31906;SDS011;18455;50.858;13.662;2022-08-19T09:07:26;22.23;;;16.58;;
31906;SDS011;18455;50.858;13.662;2022-08-19T09:12:55;20.95;;;18.10;;
31906;SDS011;18455;50.858;13.662;2022-08-19T09:18:18;23.08;;;18.50;;
31906;SDS011;18455;50.858;13.662;2022-08-19T09:23:18;21.92;;;15.70;;
31906;SDS011;18455;50.858;13.662;2022-08-19T09:28:21;23.10;;;19.88;;
31906;SDS011;18455;50.858;13.662;2022-08-19T09:33:21;21.48;;;18.25;;
31906;SDS011;18455;50.858;13.662;2022-08-19T09:38:22;21.58;;;17.90;;
31906;SDS011;18455;50.858;13.662;2022-08-19T09:43:22;19.70;;;15.68;;
31906;SDS011;18455;50.858;13.662;2022-08-19T09:48:23;19.23;;;15.25;;
31906;SDS011;18455;50.858;13.662;2022-08-19T09:59:40;14.02;;;12.55;;
31906;SDS011;18455;50.858;13.662;2022-08-19T10:04:41;13.95;;;12.13;;
31906;SDS011;18455;50.858;13.662;2022-08-19T10:10:00;12.35;;;10.55;;
31906;SDS011;18455;50.858;13.662;2022-08-19T10:15:03;12.52;;;11.23;;
31906;SDS011;18455;50.858;13.662;2022-08-19T10:20:04;13.63;;;12.23;;
31906;SDS011;18455;50.858;13.662;2022-08-19T10:25:05;15.50;;;13.90;;
31906;SDS011;18455;50.858;13.662;2022-08-19T10:30:06;16.33;;;14.57;;
31906;SDS011;18455;50.858;13.662;2022-08-19T10:35:07;19.00;;;16.95;;
31906;SDS011;18455;50.858;13.662;2022-08-19T10:40:08;24.25;;;21.23;;
31906;SDS011;18455;50.858;13.662;2022-08-19T10:45:10;20.45;;;18.27;;
31906;SDS011;18455;50.858;13.662;2022-08-19T10:50:11;20.15;;;16.83;;
31906;SDS011;18455;50.858;13.662;2022-08-19T11:01:19;16.63;;;13.85;;
31906;SDS011;18455;50.858;13.662;2022-08-19T11:06:20;14.57;;;12.02;;
31906;SDS011;18455;50.858;13.662;2022-08-19T11:11:21;10.43;;;9.32;;
31906;SDS011;18455;50.858;13.662;2022-08-19T11:16:22;8.95;;;8.15;;
31906;SDS011;18455;50.858;13.662;2022-08-19T11:21:26;8.80;;;8.00;;
31906;SDS011;18455;50.858;13.662;2022-08-19T11:26:29;8.50;;;7.70;;
31906;SDS011;18455;50.858;13.662;2022-08-19T11:31:31;9.10;;;8.30;;
31906;SDS011;18455;50.858;13.662;2022-08-19T11:36:34;7.60;;;6.90;;
31906;SDS011;18455;50.858;13.662;2022-08-19T11:41:37;9.23;;;8.32;;
31906;SDS011;18455;50.858;13.662;2022-08-19T11:46:38;10.60;;;8.70;;
31906;SDS011;18455;50.858;13.662;2022-08-19T11:51:38;6.72;;;6.10;;
31906;SDS011;18455;50.858;13.662;2022-08-19T11:56:39;6.60;;;6.00;;
31906;SDS011;18455;50.858;13.662;2022-08-19T12:01:40;6.88;;;6.13;;
31906;SDS011;18455;50.858;13.662;2022-08-19T12:06:42;5.97;;;5.45;;
31906;SDS011;18455;50.858;13.662;2022-08-19T12:11:42;6.07;;;5.57;;
31906;SDS011;18455;50.858;13.662;2022-08-19T12:16:43;6.35;;;5.75;;
31906;SDS011;18455;50.858;13.662;2022-08-19T12:21:45;5.10;;;4.53;;
31906;SDS011;18455;50.858;13.662;2022-08-19T12:26:45;5.40;;;4.90;;
31906;SDS011;18455;50.858;13.662;2022-08-19T12:31:46;6.13;;;5.63;;
31906;SDS011;18455;50.858;13.662;2022-08-19T12:36:47;6.88;;;6.18;;
31906;SDS011;18455;50.858;13.662;2022-08-19T12:41:49;7.78;;;7.07;;
31906;SDS011;18455;50.858;13.662;2022-08-19T12:46:49;8.88;;;8.07;;
31906;SDS011;18455;50.858;13.662;2022-08-19T12:51:50;8.75;;;7.95;;
31906;SDS011;18455;50.858;13.662;2022-08-19T12:56:50;10.05;;;9.05;;
31906;SDS011;18455;50.858;13.662;2022-08-19T13:01:50;10.50;;;9.40;;
31906;SDS011;18455;50.858;13.662;2022-08-19T13:06:51;11.00;;;9.55;;
31906;SDS011;18455;50.858;13.662;2022-08-19T13:11:51;10.70;;;9.60;;
31906;SDS011;18455;50.858;13.662;2022-08-19T13:16:52;14.10;;;12.52;;
31906;SDS011;18455;50.858;13.662;2022-08-19T13:21:52;15.90;;;14.30;;
31906;SDS011;18455;50.858;13.662;2022-08-19T13:26:55;19.52;;;17.42;;
31906;SDS011;18455;50.858;13.662;2022-08-19T13:31:55;20.52;;;18.42;;
31906;SDS011;18455;50.858;13.662;2022-08-19T13:37:14;24.60;;;21.17;;
31906;SDS011;18455;50.858;13.662;2022-08-19T13:42:15;24.70;;;21.92;;
31906;SDS011;18455;50.858;13.662;2022-08-19T13:47:17;24.45;;;21.67;;
31906;SDS011;18455;50.858;13.662;2022-08-19T13:52:17;25.50;;;22.80;;
31906;SDS011;18455;50.858;13.662;2022-08-19T13:57:21;33.28;;;28.98;;
31906;SDS011;18455;50.858;13.662;2022-08-19T14:02:21;33.47;;;27.80;;
31906;SDS011;18455;50.858;13.662;2022-08-19T14:07:21;37.30;;;30.60;;
31906;SDS011;18455;50.858;13.662;2022-08-19T14:12:23;41.58;;;33.45;;
31906;SDS011;18455;50.858;13.662;2022-08-19T14:17:23;46.85;;;35.83;;
31906;SDS011;18455;50.858;13.662;2022-08-19T14:22:24;52.92;;;39.30;;
31906;SDS011;18455;50.858;13.662;2022-08-19T14:27:25;52.00;;;37.00;;
31906;SDS011;18455;50.858;13.662;2022-08-19T14:32:25;48.47;;;37.30;;
31906;SDS011;18455;50.858;13.662;2022-08-19T14:37:26;51.83;;;37.35;;
31906;SDS011;18455;50.858;13.662;2022-08-19T14:42:27;46.97;;;33.80;;
31906;SDS011;18455;50.858;13.662;2022-08-19T14:47:27;44.33;;;33.42;;
31906;SDS011;18455;50.858;13.662;2022-08-19T14:52:27;42.00;;;30.40;;
31906;SDS011;18455;50.858;13.662;2022-08-19T14:57:28;39.67;;;29.35;;
31906;SDS011;18455;50.858;13.662;2022-08-19T15:02:28;39.15;;;31.35;;
31906;SDS011;18455;50.858;13.662;2022-08-19T15:07:29;43.58;;;33.90;;
31906;SDS011;18455;50.858;13.662;2022-08-19T15:12:29;43.45;;;33.60;;
31906;SDS011;18455;50.858;13.662;2022-08-19T15:17:30;43.53;;;32.47;;
31906;SDS011;18455;50.858;13.662;2022-08-19T15:22:30;44.83;;;33.53;;
31906;SDS011;18455;50.858;13.662;2022-08-19T15:27:32;43.38;;;33.30;;
31906;SDS011;18455;50.858;13.662;2022-08-19T15:32:32;44.80;;;31.63;;
31906;SDS011;18455;50.858;13.662;2022-08-19T15:37:32;49.30;;;34.50;;
31906;SDS011;18455;50.858;13.662;2022-08-19T15:42:34;42.22;;;31.05;;
31906;SDS011;18455;50.858;13.662;2022-08-19T15:47:36;41.42;;;31.35;;
31906;SDS011;18455;50.858;13.662;2022-08-19T15:52:43;35.60;;;28.52;;
31906;SDS011;18455;50.858;13.662;2022-08-19T15:57:47;37.95;;;31.77;;
31906;SDS011;18455;50.858;13.662;2022-08-19T16:03:06;38.92;;;32.00;;
31906;SDS011;18455;50.858;13.662;2022-08-19T16:08:25;45.30;;;33.75;;
31906;SDS011;18455;50.858;13.662;2022-08-19T16:13:25;48.35;;;37.00;;
31906;SDS011;18455;50.858;13.662;2022-08-19T16:18:26;45.55;;;35.88;;
31906;SDS011;18455;50.858;13.662;2022-08-19T16:23:26;47.03;;;33.75;;
31906;SDS011;18455;50.858;13.662;2022-08-19T16:28:27;39.75;;;31.88;;
31906;SDS011;18455;50.858;13.662;2022-08-19T16:33:27;39.47;;;31.92;;
31906;SDS011;18455;50.858;13.662;2022-08-19T16:38:27;36.15;;;27.98;;
31906;SDS011;18455;50.858;13.662;2022-08-19T16:43:28;30.98;;;25.42;;
31906;SDS011;18455;50.858;13.662;2022-08-19T16:48:30;30.30;;;25.77;;
31906;SDS011;18455;50.858;13.662;2022-08-19T16:53:31;54.08;;;37.05;;
31906;SDS011;18455;50.858;13.662;2022-08-19T16:58:32;49.15;;;36.05;;
31906;SDS011;18455;50.858;13.662;2022-08-19T17:03:33;61.78;;;40.47;;
31906;SDS011;18455;50.858;13.662;2022-08-19T17:08:34;57.75;;;39.92;;
31906;SDS011;18455;50.858;13.662;2022-08-19T17:13:34;66.03;;;41.78;;
31906;SDS011;18455;50.858;13.662;2022-08-19T17:18:35;59.33;;;39.45;;
31906;SDS011;18455;50.858;13.662;2022-08-19T17:23:36;61.63;;;39.83;;
31906;SDS011;18455;50.858;13.662;2022-08-19T17:28:36;67.63;;;40.80;;
31906;SDS011;18455;50.858;13.662;2022-08-19T17:33:36;60.28;;;39.35;;
31906;SDS011;18455;50.858;13.662;2022-08-19T17:38:37;46.88;;;33.10;;
31906;SDS011;18455;50.858;13.662;2022-08-19T17:43:38;48.40;;;33.60;;
31906;SDS011;18455;50.858;13.662;2022-08-19T17:48:39;46.22;;;31.70;;
31906;SDS011;18455;50.858;13.662;2022-08-19T17:53:39;37.75;;;28.38;;
31906;SDS011;18455;50.858;13.662;2022-08-19T18:04:10;36.28;;;29.17;;
31906;SDS011;18455;50.858;13.662;2022-08-19T18:09:10;31.83;;;25.50;;
31906;SDS011;18455;50.858;13.662;2022-08-19T18:14:11;44.55;;;32.78;;
31906;SDS011;18455;50.858;13.662;2022-08-19T18:19:12;45.50;;;34.25;;
31906;SDS011;18455;50.858;13.662;2022-08-19T18:24:12;44.17;;;33.40;;
31906;SDS011;18455;50.858;13.662;2022-08-19T18:29:13;47.30;;;32.33;;
31906;SDS011;18455;50.858;13.662;2022-08-19T18:34:13;36.13;;;25.85;;
31906;SDS011;18455;50.858;13.662;2022-08-19T18:39:14;37.65;;;29.48;;
31906;SDS011;18455;50.858;13.662;2022-08-19T18:44:36;38.13;;;27.42;;
31906;SDS011;18455;50.858;13.662;2022-08-19T18:49:56;54.08;;;36.45;;
31906;SDS011;18455;50.858;13.662;2022-08-19T18:54:56;37.10;;;28.27;;
31906;SDS011;18455;50.858;13.662;2022-08-19T18:59:58;36.10;;;28.75;;
31906;SDS011;18455;50.858;13.662;2022-08-19T19:04:58;38.88;;;30.60;;
31906;SDS011;18455;50.858;13.662;2022-08-19T19:09:59;38.05;;;30.02;;
31906;SDS011;18455;50.858;13.662;2022-08-19T19:14:59;40.40;;;30.63;;
31906;SDS011;18455;50.858;13.662;2022-08-19T19:20:04;49.22;;;32.22;;
31906;SDS011;18455;50.858;13.662;2022-08-19T19:25:05;52.20;;;36.13;;
31906;SDS011;18455;50.858;13.662;2022-08-19T19:30:07;47.92;;;34.38;;
31906;SDS011;18455;50.858;13.662;2022-08-19T19:35:07;51.67;;;37.50;;
31906;SDS011;18455;50.858;13.662;2022-08-19T19:40:11;52.45;;;36.58;;
31906;SDS011;18455;50.858;13.662;2022-08-19T19:45:12;65.63;;;42.17;;
31906;SDS011;18455;50.858;13.662;2022-08-19T19:50:15;66.63;;;44.80;;
31906;SDS011;18455;50.858;13.662;2022-08-19T19:55:15;62.95;;;44.00;;
31906;SDS011;18455;50.858;13.662;2022-08-19T20:00:17;66.55;;;45.38;;
31906;SDS011;18455;50.858;13.662;2022-08-19T20:05:18;64.03;;;45.30;;
31906;SDS011;18455;50.858;13.662;2022-08-19T20:10:22;60.15;;;42.88;;
31906;SDS011;18455;50.858;13.662;2022-08-19T20:15:22;66.70;;;45.10;;
31906;SDS011;18455;50.858;13.662;2022-08-19T20:20:23;72.93;;;46.33;;
31906;SDS011;18455;50.858;13.662;2022-08-19T20:25:26;66.60;;;45.03;;
31906;SDS011;18455;50.858;13.662;2022-08-19T20:30:26;65.78;;;43.92;;
31906;SDS011;18455;50.858;13.662;2022-08-19T20:35:27;70.90;;;42.90;;
31906;SDS011;18455;50.858;13.662;2022-08-19T20:40:28;58.80;;;40.00;;
31906;SDS011;18455;50.858;13.662;2022-08-19T20:45:29;64.72;;;42.13;;
31906;SDS011;18455;50.858;13.662;2022-08-19T20:50:32;58.35;;;40.35;;
31906;SDS011;18455;50.858;13.662;2022-08-19T20:55:34;61.15;;;41.83;;
31906;SDS011;18455;50.858;13.662;2022-08-19T21:00:34;59.38;;;40.47;;
31906;SDS011;18455;50.858;13.662;2022-08-19T21:05:34;53.75;;;39.20;;
31906;SDS011;18455;50.858;13.662;2022-08-19T21:10:35;53.58;;;38.97;;
31906;SDS011;18455;50.858;13.662;2022-08-19T21:15:35;51.13;;;36.03;;
31906;SDS011;18455;50.858;13.662;2022-08-19T21:20:39;58.40;;;37.72;;
31906;SDS011;18455;50.858;13.662;2022-08-19T21:25:40;53.38;;;36.45;;
31906;SDS011;18455;50.858;13.662;2022-08-19T21:30:41;44.85;;;30.63;;
31906;SDS011;18455;50.858;13.662;2022-08-19T21:35:42;48.67;;;33.95;;
31906;SDS011;18455;50.858;13.662;2022-08-19T21:40:42;49.83;;;33.63;;
31906;SDS011;18455;50.858;13.662;2022-08-19T21:45:42;49.30;;;33.15;;
31906;SDS011;18455;50.858;13.662;2022-08-19T21:50:44;53.67;;;34.97;;
31906;SDS011;18455;50.858;13.662;2022-08-19T21:55:44;44.75;;;31.92;;
31906;SDS011;18455;50.858;13.662;2022-08-19T22:00:45;43.42;;;30.35;;
31906;SDS011;18455;50.858;13.662;2022-08-19T22:05:46;49.03;;;34.15;;
31906;SDS011;18455;50.858;13.662;2022-08-19T22:10:46;44.60;;;30.92;;
31906;SDS011;18455;50.858;13.662;2022-08-19T22:15:48;47.67;;;33.78;;
31906;SDS011;18455;50.858;13.662;2022-08-19T22:20:50;44.22;;;31.52;;
31906;SDS011;18455;50.858;13.662;2022-08-19T22:25:51;50.83;;;34.50;;
31906;SDS011;18455;50.858;13.662;2022-08-19T22:30:51;49.55;;;36.28;;
31906;SDS011;18455;50.858;13.662;2022-08-19T22:35:51;55.58;;;35.63;;
31906;SDS011;18455;50.858;13.662;2022-08-19T22:40:52;47.40;;;33.80;;
31906;SDS011;18455;50.858;13.662;2022-08-19T22:45:53;51.28;;;35.25;;
31906;SDS011;18455;50.858;13.662;2022-08-19T22:50:54;52.42;;;35.88;;
31906;SDS011;18455;50.858;13.662;2022-08-19T22:56:15;57.40;;;36.58;;
31906;SDS011;18455;50.858;13.662;2022-08-19T23:01:18;56.15;;;36.95;;
31906;SDS011;18455;50.858;13.662;2022-08-19T23:06:21;61.05;;;36.13;;
31906;SDS011;18455;50.858;13.662;2022-08-19T23:11:21;57.33;;;36.05;;
31906;SDS011;18455;50.858;13.662;2022-08-19T23:16:22;53.28;;;36.03;;
31906;SDS011;18455;50.858;13.662;2022-08-19T23:21:22;63.85;;;39.05;;
31906;SDS011;18455;50.858;13.662;2022-08-19T23:26:25;58.63;;;38.03;;
31906;SDS011;18455;50.858;13.662;2022-08-19T23:31:25;70.03;;;40.55;;
31906;SDS011;18455;50.858;13.662;2022-08-19T23:36:26;62.17;;;39.45;;
31906;SDS011;18455;50.858;13.662;2022-08-19T23:41:26;75.20;;;40.90;;
31906;SDS011;18455;50.858;13.662;2022-08-19T23:46:27;76.38;;;43.08;;
31906;SDS011;18455;50.858;13.662;2022-08-19T23:51:27;76.47;;;41.13;;
31906;SDS011;18455;50.858;13.662;2022-08-19T23:56:27;79.05;;;42.65;;
